Time;durP1;ratioP1;P1;durP2;ratioP2;P2;SDS_P1;SDS_P2;PMS_P1;PMS_P2;Temp;Humidity;BMP_temperature;BMP_pressure;BME280_temperature;BME280_humidity;BME280_pressure;Samples;Min_cycle;Max_cycle;Signal;HPM_P1;HPM_P2
2021/08/26 00:07:34;;;;;;;0.50;0.40;;;16.00;99.90;;;;;;4981683;28;20854;-84
2021/08/26 00:10:06;;;;;;;0.50;0.30;;;16.00;99.90;;;;;;4982209;28;20453;-83
2021/08/26 00:12:32;;;;;;;0.80;0.80;;;15.90;99.90;;;;;;4981192;28;20475;-83
2021/08/26 00:15:00;;;;;;;2.10;2.00;;;16.00;99.90;;;;;;4980924;28;20480;-84
2021/08/26 00:17:28;;;;;;;0.50;0.40;;;16.00;99.90;;;;;;4980931;28;20445;-83
2021/08/26 00:19:55;;;;;;;0.50;0.30;;;16.00;99.90;;;;;;4980851;28;20455;-83
2021/08/26 00:22:22;;;;;;;0.50;0.40;;;15.90;99.90;;;;;;4980373;28;20475;-83
2021/08/26 00:24:49;;;;;;;0.50;0.30;;;15.90;99.90;;;;;;4980338;28;20472;-83
2021/08/26 00:27:15;;;;;;;2.30;2.20;;;16.00;99.90;;;;;;4981052;28;20542;-83
2021/08/26 00:29:42;;;;;;;0.80;0.77;;;16.00;99.90;;;;;;4979422;28;20433;-83
2021/08/26 00:32:09;;;;;;;0.50;0.30;;;15.90;99.90;;;;;;4980011;28;20465;-83
2021/08/26 00:34:37;;;;;;;0.50;0.30;;;15.90;99.90;;;;;;4980597;28;20477;-83
2021/08/26 00:37:04;;;;;;;0.50;0.40;;;15.90;99.90;;;;;;4980806;28;20449;-81
2021/08/26 00:39:31;;;;;;;0.50;0.40;;;15.90;99.90;;;;;;4979659;28;20437;-83
2021/08/26 00:41:57;;;;;;;0.50;0.30;;;15.90;99.90;;;;;;4979915;28;20469;-80
2021/08/26 00:44:24;;;;;;;2.40;2.20;;;15.90;99.90;;;;;;4979290;28;20449;-83
2021/08/26 00:46:51;;;;;;;0.50;0.33;;;15.80;99.90;;;;;;4979668;28;20451;-83
2021/08/26 00:49:19;;;;;;;1.90;0.80;;;15.90;99.90;;;;;;4980090;28;20453;-83
2021/08/26 00:51:47;;;;;;;1.23;1.00;;;15.90;99.90;;;;;;4978584;28;20846;-83
2021/08/26 00:54:14;;;;;;;1.53;1.43;;;15.90;99.90;;;;;;4979364;28;20479;-84
2021/08/26 00:56:41;;;;;;;0.50;0.40;;;15.80;99.90;;;;;;4978962;28;20442;-82
2021/08/26 00:59:09;;;;;;;0.70;0.70;;;15.70;99.90;;;;;;4979457;28;20448;-81
2021/08/26 01:01:43;;;;;;;0.50;0.40;;;15.70;99.90;;;;;;4979116;28;20466;-83
2021/08/26 01:04:18;;;;;;;0.70;0.70;;;15.80;99.90;;;;;;4979118;28;20462;-83
2021/08/26 01:06:57;;;;;;;0.70;0.70;;;15.70;99.90;;;;;;4978117;28;20467;-83
2021/08/26 01:09:30;;;;;;;2.60;1.57;;;15.60;99.90;;;;;;4978707;28;20993;-83
2021/08/26 01:11:58;;;;;;;0.50;0.30;;;15.60;99.90;;;;;;4977773;28;21140;-78
2021/08/26 01:14:26;;;;;;;2.50;0.87;;;15.60;99.90;;;;;;4978387;28;20480;-83
2021/08/26 01:16:53;;;;;;;0.50;0.40;;;15.50;99.90;;;;;;4978399;28;20445;-83
2021/08/26 01:19:19;;;;;;;0.50;0.40;;;15.50;99.90;;;;;;4978213;28;20445;-83
2021/08/26 01:21:48;;;;;;;0.70;0.40;;;15.40;99.90;;;;;;4977867;28;20473;-83
2021/08/26 01:24:17;;;;;;;0.50;0.40;;;15.40;99.90;;;;;;4978481;28;20437;-83
2021/08/26 01:26:49;;;;;;;0.50;0.40;;;15.40;99.90;;;;;;4978209;28;20452;-84
2021/08/26 01:29:17;;;;;;;0.50;0.33;;;15.40;99.90;;;;;;4978233;28;20452;-83
2021/08/26 01:31:44;;;;;;;0.50;0.40;;;15.40;99.90;;;;;;4988366;28;20488;-83
2021/08/26 01:34:13;;;;;;;0.50;0.40;;;15.30;99.90;;;;;;4978153;28;20480;-84
2021/08/26 01:36:40;;;;;;;0.50;0.30;;;15.30;99.90;;;;;;4977381;28;20444;-84
2021/08/26 01:39:09;;;;;;;0.50;0.33;;;15.20;99.90;;;;;;4978115;28;20451;-82
2021/08/26 01:41:43;;;;;;;0.50;0.40;;;15.20;99.90;;;;;;4977121;28;20464;-83
2021/08/26 01:44:11;;;;;;;0.50;0.40;;;15.20;99.90;;;;;;4977301;28;20447;-84
2021/08/26 01:46:38;;;;;;;0.50;0.30;;;15.20;99.90;;;;;;4977469;28;20444;-84
2021/08/26 01:49:05;;;;;;;0.50;0.30;;;15.20;99.90;;;;;;4977245;28;20445;-84
2021/08/26 01:51:32;;;;;;;0.50;0.30;;;15.20;99.90;;;;;;4977054;28;20472;-84
2021/08/26 01:53:59;;;;;;;0.50;0.40;;;15.20;99.90;;;;;;4977444;28;20453;-82
2021/08/26 01:56:26;;;;;;;0.70;0.70;;;15.30;99.90;;;;;;4976058;28;20456;-83
2021/08/26 01:58:52;;;;;;;0.50;0.30;;;15.30;99.90;;;;;;4976695;28;20456;-83
2021/08/26 02:01:21;;;;;;;0.50;0.30;;;15.30;99.90;;;;;;4976424;28;20472;-83
2021/08/26 02:03:47;;;;;;;0.50;0.33;;;15.20;99.90;;;;;;4977613;28;20466;-83
2021/08/26 02:06:14;;;;;;;0.50;0.40;;;15.20;99.90;;;;;;4977362;28;20441;-83
2021/08/26 02:08:41;;;;;;;0.50;0.33;;;15.20;99.90;;;;;;4976941;28;20484;-84
2021/08/26 02:11:08;;;;;;;0.50;0.40;;;15.20;99.90;;;;;;4976620;28;20437;-83
2021/08/26 02:13:35;;;;;;;0.50;0.30;;;15.20;99.90;;;;;;4977412;28;20447;-83
2021/08/26 02:16:01;;;;;;;0.50;0.40;;;15.20;99.90;;;;;;4976342;28;20480;-84
2021/08/26 02:18:29;;;;;;;0.50;0.40;;;15.20;99.90;;;;;;4976223;28;20448;-84
2021/08/26 02:20:56;;;;;;;0.50;0.30;;;15.20;99.90;;;;;;4976436;28;20445;-82
2021/08/26 02:23:23;;;;;;;0.50;0.40;;;15.20;99.90;;;;;;4976527;28;20445;-84
2021/08/26 02:25:50;;;;;;;0.50;0.30;;;15.20;99.90;;;;;;4976266;28;20451;-83
2021/08/26 02:28:16;;;;;;;0.50;0.30;;;15.20;99.90;;;;;;4976074;28;20463;-84
2021/08/26 02:30:43;;;;;;;0.50;0.40;;;15.20;99.90;;;;;;4976651;28;20449;-84
2021/08/26 02:33:10;;;;;;;0.50;0.40;;;15.20;99.90;;;;;;4976445;28;20472;-83
2021/08/26 02:35:38;;;;;;;0.50;0.40;;;15.20;99.90;;;;;;4976002;28;20481;-84
2021/08/26 02:38:05;;;;;;;0.50;0.30;;;15.20;99.90;;;;;;4976565;28;20471;-83
2021/08/26 02:40:32;;;;;;;0.50;0.37;;;15.20;99.90;;;;;;4975563;28;20952;-84
2021/08/26 02:42:59;;;;;;;0.50;0.40;;;15.20;99.90;;;;;;4976146;28;20506;-81
2021/08/26 02:45:25;;;;;;;0.50;0.30;;;15.10;99.90;;;;;;4976798;28;20444;-83
2021/08/26 02:47:52;;;;;;;0.50;0.30;;;15.20;99.90;;;;;;4976460;28;20520;-83
2021/08/26 02:50:19;;;;;;;0.50;0.40;;;15.20;99.90;;;;;;4976399;28;20437;-83
2021/08/26 02:52:47;;;;;;;0.50;0.40;;;15.10;99.90;;;;;;4975817;28;20469;-83
2021/08/26 02:55:14;;;;;;;0.50;0.40;;;15.10;99.90;;;;;;4976500;28;20480;-83
2021/08/26 02:57:40;;;;;;;0.50;0.40;;;15.00;99.90;;;;;;4975945;28;20456;-84
2021/08/26 03:00:09;;;;;;;0.50;0.40;;;15.00;99.90;;;;;;4975906;28;20950;-81
2021/08/26 03:02:35;;;;;;;0.50;0.30;;;15.00;99.90;;;;;;4975829;28;20478;-83
2021/08/26 03:05:02;;;;;;;0.50;0.40;;;15.00;99.90;;;;;;4975551;28;20436;-81
2021/08/26 03:07:29;;;;;;;0.50;0.40;;;15.00;99.90;;;;;;4976263;28;20437;-83
2021/08/26 03:09:57;;;;;;;0.50;0.32;;;15.00;99.90;;;;;;4975835;28;20452;-83
2021/08/26 03:12:24;;;;;;;0.50;0.40;;;14.90;99.90;;;;;;4975315;28;20224;-84
2021/08/26 03:14:50;;;;;;;1.27;1.17;;;14.80;99.90;;;;;;4975213;28;20479;-84
2021/08/26 03:17:17;;;;;;;0.50;0.40;;;14.80;99.90;;;;;;4975583;28;20449;-83
2021/08/26 03:19:44;;;;;;;0.50;0.40;;;14.80;99.90;;;;;;4975422;28;20470;-81
2021/08/26 03:22:11;;;;;;;0.50;0.33;;;14.80;99.90;;;;;;4975886;28;20461;-83
2021/08/26 03:24:37;;;;;;;0.50;0.40;;;14.80;99.90;;;;;;4975652;28;20444;-84
2021/08/26 03:27:05;;;;;;;0.50;0.30;;;14.70;99.90;;;;;;4975693;28;20223;-83
2021/08/26 03:29:32;;;;;;;0.50;0.30;;;14.70;99.90;;;;;;4976110;28;20201;-84
2021/08/26 03:31:59;;;;;;;0.70;0.70;;;14.70;99.90;;;;;;4975061;28;20461;-83
2021/08/26 03:34:26;;;;;;;0.50;0.40;;;14.70;99.90;;;;;;4975391;28;20452;-83
2021/08/26 03:36:52;;;;;;;0.50;0.40;;;14.60;99.90;;;;;;4974952;28;20227;-84
2021/08/26 03:39:19;;;;;;;2.93;1.10;;;14.70;99.90;;;;;;4974993;28;20453;-81
2021/08/26 03:41:46;;;;;;;0.50;0.30;;;14.70;99.90;;;;;;4973840;28;20823;-82
2021/08/26 03:44:14;;;;;;;0.50;0.33;;;14.60;99.90;;;;;;4974351;28;20446;-82
2021/08/26 03:46:41;;;;;;;0.50;0.30;;;14.60;99.90;;;;;;4975148;28;20799;-83
2021/08/26 03:49:07;;;;;;;0.50;0.40;;;14.70;99.90;;;;;;4974316;28;20937;-81
2021/08/26 03:51:35;;;;;;;0.50;0.40;;;14.70;99.90;;;;;;4974283;28;20465;-82
2021/08/26 03:54:01;;;;;;;0.50;0.40;;;14.70;99.90;;;;;;4975092;28;20444;-82
2021/08/26 03:56:28;;;;;;;0.50;0.40;;;14.70;99.90;;;;;;4974541;28;21004;-82
2021/08/26 03:58:55;;;;;;;0.50;0.40;;;14.70;99.90;;;;;;4974299;28;20495;-82
2021/08/26 04:01:23;;;;;;;0.50;0.40;;;14.60;99.90;;;;;;4973601;28;20709;-83
2021/08/26 04:03:50;;;;;;;0.50;0.40;;;14.60;99.90;;;;;;4974373;28;20452;-82
2021/08/26 04:06:16;;;;;;;0.50;0.40;;;14.60;99.90;;;;;;4973971;28;20822;-83
2021/08/26 04:08:43;;;;;;;0.50;0.47;;;14.60;99.90;;;;;;4974863;28;20819;-82
2021/08/26 04:11:10;;;;;;;0.50;0.40;;;14.60;99.90;;;;;;4973401;28;20453;-84
2021/08/26 04:13:37;;;;;;;0.50;0.50;;;14.60;99.90;;;;;;4973690;28;20453;-82
2021/08/26 04:16:04;;;;;;;0.60;0.40;;;14.60;99.90;;;;;;4973687;28;20487;-80
2021/08/26 04:18:32;;;;;;;0.50;0.40;;;14.60;99.90;;;;;;4973782;28;20812;-84
2021/08/26 04:20:59;;;;;;;0.50;0.30;;;14.60;99.90;;;;;;4976235;28;20451;-81
2021/08/26 04:23:26;;;;;;;0.50;0.40;;;14.60;99.90;;;;;;4980385;28;20449;-84
2021/08/26 04:25:53;;;;;;;0.50;0.50;;;14.60;99.90;;;;;;4982714;28;20433;-83
2021/08/26 04:28:19;;;;;;;0.50;0.40;;;14.60;99.90;;;;;;4982753;28;20456;-82
2021/08/26 04:30:46;;;;;;;0.50;0.40;;;14.60;99.90;;;;;;4983110;28;20444;-82
2021/08/26 04:33:13;;;;;;;4.20;1.30;;;14.60;99.90;;;;;;4981747;28;20472;-82
2021/08/26 04:35:41;;;;;;;0.50;0.40;;;14.60;99.90;;;;;;4982917;28;20492;-83
2021/08/26 04:38:08;;;;;;;1.53;1.43;;;14.60;99.90;;;;;;4982142;28;20445;-80
2021/08/26 04:40:36;;;;;;;0.50;0.40;;;14.60;99.90;;;;;;4982800;28;20444;-82
2021/08/26 04:43:02;;;;;;;0.50;0.50;;;14.60;99.90;;;;;;4982178;28;20591;-84
2021/08/26 04:45:29;;;;;;;0.50;0.40;;;14.60;99.90;;;;;;4983132;28;20449;-82
2021/08/26 04:47:56;;;;;;;0.50;0.40;;;14.60;99.90;;;;;;4982420;28;20441;-83
2021/08/26 04:50:23;;;;;;;0.50;0.40;;;14.60;99.90;;;;;;4982476;28;20460;-82
2021/08/26 04:52:51;;;;;;;0.50;0.40;;;14.60;99.90;;;;;;4981661;28;20461;-82
2021/08/26 04:55:18;;;;;;;0.50;0.40;;;14.60;99.90;;;;;;4982180;28;21033;-82
2021/08/26 04:57:45;;;;;;;0.50;0.33;;;14.60;99.90;;;;;;4981496;28;20445;-82
2021/08/26 05:00:12;;;;;;;0.50;0.50;;;14.60;99.90;;;;;;4981414;28;20451;-82
2021/08/26 05:02:39;;;;;;;0.50;0.40;;;14.60;99.90;;;;;;4982125;28;20497;-82
2021/08/26 05:05:06;;;;;;;2.77;2.67;;;14.70;99.90;;;;;;4983177;28;20466;-83
2021/08/26 05:07:33;;;;;;;0.50;0.40;;;14.70;99.90;;;;;;4985674;28;20441;-83
2021/08/26 05:10:01;;;;;;;0.50;0.30;;;14.70;99.90;;;;;;4978373;28;20443;-79
2021/08/26 05:12:30;;;;;;;0.50;0.30;;;14.70;99.90;;;;;;4982380;28;20473;-83
2021/08/26 05:14:57;;;;;;;0.50;0.30;;;14.70;99.90;;;;;;4983108;28;20534;-83
2021/08/26 05:17:24;;;;;;;0.50;0.40;;;14.60;99.90;;;;;;4983603;28;20449;-84
2021/08/26 05:19:50;;;;;;;0.50;0.40;;;14.70;99.90;;;;;;4983437;28;20487;-82
2021/08/26 05:22:17;;;;;;;0.97;0.80;;;14.70;99.90;;;;;;4983900;28;20488;-84
2021/08/26 05:24:47;;;;;;;0.50;0.37;;;14.70;99.90;;;;;;4984684;28;20962;-83
2021/08/26 05:27:15;;;;;;;0.50;0.40;;;14.80;99.90;;;;;;4983685;28;20460;-84
2021/08/26 05:29:44;;;;;;;0.50;0.30;;;14.80;99.90;;;;;;4983742;28;20512;-84
2021/08/26 05:32:11;;;;;;;0.50;0.30;;;14.90;99.90;;;;;;4983546;28;20473;-82
2021/08/26 05:34:37;;;;;;;0.50;0.30;;;14.90;99.90;;;;;;4984047;28;20468;-84
2021/08/26 05:37:04;;;;;;;0.50;0.30;;;14.90;99.90;;;;;;4983632;28;20556;-84
2021/08/26 05:39:31;;;;;;;0.50;0.40;;;14.90;99.90;;;;;;4984521;28;20455;-84
2021/08/26 05:41:58;;;;;;;0.50;0.30;;;14.90;99.90;;;;;;4983660;28;20537;-81
2021/08/26 05:44:26;;;;;;;0.50;0.40;;;14.90;99.90;;;;;;4984110;28;20480;-84
2021/08/26 05:46:53;;;;;;;0.60;0.30;;;15.00;99.90;;;;;;4983539;28;20452;-84
2021/08/26 05:49:20;;;;;;;0.50;0.40;;;15.00;99.90;;;;;;4983378;28;20513;-82
2021/08/26 05:51:47;;;;;;;0.50;0.30;;;15.00;99.90;;;;;;4984292;28;20584;-83
2021/08/26 05:54:14;;;;;;;3.17;0.97;;;15.20;99.90;;;;;;4983949;28;20476;-83
2021/08/26 05:56:41;;;;;;;0.50;0.40;;;15.20;99.90;;;;;;4984018;28;20567;-83
2021/08/26 05:59:08;;;;;;;0.50;0.40;;;15.30;99.90;;;;;;4984613;28;20515;-84
2021/08/26 06:01:36;;;;;;;0.50;0.30;;;15.40;99.90;;;;;;4983609;28;20481;-84
2021/08/26 06:04:03;;;;;;;0.50;0.40;;;15.40;99.90;;;;;;4983282;28;20455;-82
2021/08/26 06:06:30;;;;;;;0.50;0.40;;;15.30;99.90;;;;;;4983865;28;20512;-83
2021/08/26 06:08:57;;;;;;;0.50;0.40;;;15.40;99.90;;;;;;4983068;28;20544;-84
2021/08/26 06:11:24;;;;;;;0.50;0.30;;;15.50;99.90;;;;;;4983413;28;20580;-84
2021/08/26 06:13:50;;;;;;;0.50;0.30;;;15.60;99.90;;;;;;4984573;28;20453;-84
2021/08/26 06:16:17;;;;;;;1.00;1.00;;;15.70;99.90;;;;;;4983470;28;20496;-84
2021/08/26 06:18:45;;;;;;;0.50;0.30;;;15.80;99.90;;;;;;4983797;28;20457;-83
2021/08/26 06:21:15;;;;;;;0.67;0.67;;;16.00;99.90;;;;;;4983883;28;20451;-83
2021/08/26 06:23:42;;;;;;;0.50;0.30;;;16.10;99.90;;;;;;4984151;28;20457;-84
2021/08/26 06:26:09;;;;;;;1.23;1.10;;;16.30;99.90;;;;;;4983795;28;20465;-84
2021/08/26 06:28:36;;;;;;;0.50;0.40;;;16.30;99.90;;;;;;4983554;28;20870;-83
2021/08/26 06:31:03;;;;;;;3.70;3.20;;;16.70;99.90;;;;;;4983451;28;20888;-82
2021/08/26 06:33:30;;;;;;;0.50;0.30;;;17.60;99.90;;;;;;4984538;28;20516;-84
2021/08/26 06:35:58;;;;;;;0.50;0.40;;;17.70;99.90;;;;;;4984809;28;21065;-84
2021/08/26 06:38:25;;;;;;;0.50;0.30;;;17.90;99.90;;;;;;4985087;28;20925;-83
2021/08/26 06:40:52;;;;;;;0.50;0.30;;;18.30;99.90;;;;;;4983819;28;20453;-83
2021/08/26 06:43:19;;;;;;;0.57;0.50;;;18.50;99.90;;;;;;4984261;28;20516;-84
2021/08/26 06:45:45;;;;;;;0.60;0.50;;;18.60;99.90;;;;;;4984057;28;20466;-83
2021/08/26 06:48:12;;;;;;;0.60;0.53;;;18.20;99.90;;;;;;4983849;28;20529;-83
2021/08/26 06:50:39;;;;;;;0.50;0.30;;;17.70;99.90;;;;;;4983923;28;20516;-84
2021/08/26 06:53:08;;;;;;;0.50;0.30;;;17.20;99.90;;;;;;4983687;28;20497;-84
2021/08/26 06:55:35;;;;;;;0.50;0.30;;;16.90;99.90;;;;;;4983729;28;20454;-84
2021/08/26 06:58:05;;;;;;;0.50;0.40;;;16.80;99.90;;;;;;4983854;28;20472;-83
2021/08/26 07:00:31;;;;;;;0.50;0.30;;;16.80;99.90;;;;;;4983099;28;20453;-83
2021/08/26 07:02:58;;;;;;;0.50;0.30;;;16.80;99.90;;;;;;4983563;28;20492;-84
2021/08/26 07:05:25;;;;;;;0.50;0.30;;;16.90;99.90;;;;;;4983435;28;20476;-84
2021/08/26 07:07:52;;;;;;;0.50;0.30;;;17.00;99.90;;;;;;4983248;28;20438;-84
2021/08/26 07:10:20;;;;;;;0.50;0.30;;;17.20;99.90;;;;;;4983445;28;20513;-84
2021/08/26 07:12:47;;;;;;;0.50;0.30;;;17.50;99.90;;;;;;4984073;28;20518;-84
2021/08/26 07:15:14;;;;;;;0.50;0.30;;;17.70;99.90;;;;;;4983909;28;20883;-84
2021/08/26 07:17:41;;;;;;;0.50;0.30;;;17.70;99.90;;;;;;4984206;28;20493;-83
2021/08/26 07:20:10;;;;;;;0.50;0.30;;;17.70;99.90;;;;;;4984209;28;20469;-81
2021/08/26 07:22:36;;;;;;;0.50;0.30;;;17.80;99.90;;;;;;4983765;28;20493;-83
2021/08/26 07:25:03;;;;;;;0.50;0.30;;;17.60;99.90;;;;;;4983416;28;20893;-82
2021/08/26 07:27:32;;;;;;;0.73;0.73;;;17.60;99.90;;;;;;4983041;28;20455;-82
2021/08/26 07:29:59;;;;;;;0.50;0.30;;;17.60;99.90;;;;;;4982536;28;21026;-83
2021/08/26 07:32:26;;;;;;;0.50;0.30;;;17.50;99.90;;;;;;4983920;28;20474;-84
2021/08/26 07:34:53;;;;;;;0.50;0.30;;;17.40;99.90;;;;;;4982947;28;20927;-82
2021/08/26 07:37:19;;;;;;;0.50;0.30;;;17.10;99.90;;;;;;4982628;28;20564;-83
2021/08/26 07:39:46;;;;;;;8.30;1.27;;;16.90;99.90;;;;;;4982310;28;20549;-84
2021/08/26 07:42:13;;;;;;;0.50;0.40;;;16.70;99.90;;;;;;4981860;28;20556;-83
2021/08/26 07:44:42;;;;;;;0.50;0.30;;;16.40;99.90;;;;;;4982610;28;20548;-83
2021/08/26 07:47:08;;;;;;;0.50;0.37;;;16.40;99.90;;;;;;4982561;28;20532;-82
2021/08/26 07:49:35;;;;;;;0.50;0.40;;;16.50;99.90;;;;;;4983251;28;20449;-84
2021/08/26 07:52:03;;;;;;;0.50;0.30;;;16.60;99.90;;;;;;4982527;28;20529;-83
2021/08/26 07:54:29;;;;;;;0.50;0.30;;;16.90;99.90;;;;;;4983748;28;20567;-84
2021/08/26 07:56:57;;;;;;;0.50;0.30;;;17.00;99.90;;;;;;4986788;28;20461;-83
2021/08/26 07:59:24;;;;;;;0.50;0.30;;;17.20;99.90;;;;;;4987352;28;20446;-84
2021/08/26 08:01:52;;;;;;;1.33;1.33;;;18.10;99.90;;;;;;4986251;28;20472;-84
2021/08/26 08:04:19;;;;;;;0.50;0.30;;;19.10;99.90;;;;;;4987845;28;20460;-83
2021/08/26 08:06:47;;;;;;;0.50;0.30;;;20.10;99.90;;;;;;4987043;28;20969;-84
2021/08/26 08:09:14;;;;;;;0.50;0.40;;;20.60;99.90;;;;;;4986977;28;20473;-85
2021/08/26 08:11:41;;;;;;;0.50;0.30;;;20.70;99.90;;;;;;4986741;28;20444;-84
2021/08/26 08:14:08;;;;;;;0.50;0.30;;;21.00;99.90;;;;;;4987785;28;20444;-83
2021/08/26 08:16:35;;;;;;;0.50;0.30;;;21.00;99.90;;;;;;4986534;28;20973;-84
2021/08/26 08:19:04;;;;;;;0.50;0.30;;;20.70;99.90;;;;;;4987546;28;20478;-83
2021/08/26 08:21:31;;;;;;;0.50;0.30;;;20.40;99.90;;;;;;4986751;28;20474;-83
2021/08/26 08:23:58;;;;;;;0.50;0.30;;;20.00;99.90;;;;;;4986717;28;20450;-82
2021/08/26 08:26:25;;;;;;;0.50;0.40;;;19.60;99.90;;;;;;4986374;28;20439;-84
2021/08/26 08:28:52;;;;;;;0.50;0.30;;;19.50;99.90;;;;;;4986875;28;20493;-83
2021/08/26 08:31:19;;;;;;;1.10;1.00;;;19.60;99.90;;;;;;4985449;28;20549;-82
2021/08/26 08:33:46;;;;;;;0.50;0.30;;;20.30;99.90;;;;;;4986440;28;20466;-84
2021/08/26 08:36:15;;;;;;;2.20;0.60;;;21.00;99.90;;;;;;4986089;28;20565;-84
2021/08/26 08:38:42;;;;;;;0.50;0.30;;;21.20;99.90;;;;;;4986147;28;20456;-83
2021/08/26 08:41:09;;;;;;;0.50;0.30;;;21.10;99.90;;;;;;4985324;28;20489;-84
2021/08/26 08:43:36;;;;;;;1.03;1.03;;;21.40;99.90;;;;;;4985933;28;20453;-83
2021/08/26 08:46:05;;;;;;;0.50;0.30;;;21.90;99.90;;;;;;4985972;28;20484;-84
2021/08/26 08:48:35;;;;;;;0.50;0.30;;;22.50;99.90;;;;;;4985790;28;20453;-83
2021/08/26 08:51:03;;;;;;;0.50;0.30;;;23.20;99.90;;;;;;4985230;28;20449;-84
2021/08/26 08:53:31;;;;;;;0.50;0.30;;;24.00;99.90;;;;;;4985424;28;20436;-81
2021/08/26 08:55:59;;;;;;;0.50;0.40;;;25.30;99.90;;;;;;4986939;28;20461;-83
2021/08/26 08:58:25;;;;;;;0.50;0.30;;;25.90;99.90;;;;;;4985756;28;20897;-81
2021/08/26 09:00:53;;;;;;;0.50;0.30;;;25.80;99.90;;;;;;4985856;28;20457;-84
2021/08/26 09:03:20;;;;;;;0.50;0.30;;;25.60;99.90;;;;;;4986119;28;20488;-84
2021/08/26 09:05:53;;;;;;;0.53;0.40;;;25.60;99.90;;;;;;4986860;28;20447;-84
2021/08/26 09:08:21;;;;;;;0.50;0.30;;;26.10;99.90;;;;;;4985837;28;20452;-83
2021/08/26 09:10:52;;;;;;;0.50;0.30;;;26.70;99.90;;;;;;4984574;28;21020;-81
2021/08/26 09:13:28;;;;;;;0.50;0.40;;;27.20;99.90;;;;;;4985123;28;20495;-81
2021/08/26 09:15:55;;;;;;;0.50;0.40;;;28.50;99.90;;;;;;4986463;28;20487;-82
2021/08/26 09:18:22;;;;;;;4.70;0.40;;;29.90;95.80;;;;;;4986028;28;20501;-82
2021/08/26 09:20:51;;;;;;;0.50;0.30;;;30.90;86.90;;;;;;4985085;28;20480;-82
2021/08/26 09:23:18;;;;;;;0.50;0.30;;;30.50;82.90;;;;;;4985487;28;20480;-81
2021/08/26 09:25:46;;;;;;;0.50;0.30;;;30.90;85.90;;;;;;4985098;28;20897;-82
2021/08/26 09:28:31;;;;;;;0.50;0.40;;;31.80;77.90;;;;;;4985248;28;20476;-81
2021/08/26 09:31:12;;;;;;;0.50;0.40;;;31.10;76.90;;;;;;4986103;28;20551;-82
2021/08/26 09:33:51;;;;;;;0.63;0.63;;;29.50;79.90;;;;;;4984532;28;20522;-81
2021/08/26 09:36:19;;;;;;;0.50;0.30;;;27.90;84.00;;;;;;4984747;28;21009;-82
2021/08/26 09:38:57;;;;;;;0.50;0.30;;;27.10;89.70;;;;;;4985736;28;20471;-83
2021/08/26 09:41:39;;;;;;;0.50;0.30;;;26.30;93.70;;;;;;4986074;28;20509;-83
2021/08/26 09:44:09;;;;;;;0.50;0.30;;;25.50;99.90;;;;;;4984745;28;20466;-80
2021/08/26 09:46:37;;;;;;;0.50;0.30;;;24.90;99.90;;;;;;4985580;28;20488;-83
2021/08/26 09:49:06;;;;;;;0.50;0.30;;;24.20;99.90;;;;;;4986041;28;20469;-82
2021/08/26 09:51:33;;;;;;;0.50;0.40;;;23.20;99.90;;;;;;4984502;28;20476;-83
2021/08/26 09:54:00;;;;;;;0.50;0.30;;;22.70;99.90;;;;;;4984020;28;20473;-81
2021/08/26 09:56:39;;;;;;;0.50;0.30;;;22.20;99.90;;;;;;4984109;28;20847;-83
2021/08/26 09:59:08;;;;;;;0.50;0.30;;;21.70;99.90;;;;;;4985082;28;20879;-82
2021/08/26 10:01:39;;;;;;;0.50;0.30;;;21.30;99.90;;;;;;4984208;28;20575;-82
2021/08/26 10:04:27;;;;;;;0.50;0.30;;;21.10;99.90;;;;;;4984016;28;20439;-81
2021/08/26 10:06:55;;;;;;;0.50;0.30;;;20.90;99.90;;;;;;4985205;28;20444;-83
2021/08/26 10:09:23;;;;;;;0.50;0.30;;;20.70;99.90;;;;;;4984633;28;20527;-82
2021/08/26 10:11:50;;;;;;;0.50;0.40;;;20.70;99.90;;;;;;4984126;28;20473;-82
2021/08/26 10:14:18;;;;;;;0.50;0.30;;;20.70;99.90;;;;;;4985215;28;20440;-82
2021/08/26 10:16:46;;;;;;;0.50;0.30;;;20.50;99.90;;;;;;4983682;28;20472;-81
2021/08/26 10:19:15;;;;;;;0.50;0.30;;;20.30;99.90;;;;;;4984397;28;20470;-81
2021/08/26 10:21:43;;;;;;;0.50;0.30;;;20.10;99.90;;;;;;4983614;28;20464;-83
2021/08/26 10:24:12;;;;;;;0.50;0.30;;;20.10;99.90;;;;;;5051564;23;20865;-86
2021/08/26 10:26:43;;;;;;;0.50;0.30;;;20.00;99.90;;;;;;5016209;28;20454;-84
2021/08/26 10:29:11;;;;;;;0.50;0.30;;;20.10;99.90;;;;;;5021069;28;20466;-86
2021/08/26 10:31:39;;;;;;;0.50;0.30;;;20.20;99.90;;;;;;5020156;28;20465;-86
2021/08/26 10:34:13;;;;;;;0.50;0.30;;;20.40;99.90;;;;;;5020072;28;20512;-85
2021/08/26 10:36:45;;;;;;;1.07;1.07;;;20.50;99.90;;;;;;5021155;28;20458;-86
2021/08/26 10:39:29;;;;;;;0.50;0.30;;;20.60;99.90;;;;;;5021829;28;20435;-87
2021/08/26 10:41:56;;;;;;;0.50;0.30;;;20.90;99.90;;;;;;5023820;28;20930;-86
2021/08/26 10:44:23;;;;;;;0.60;0.50;;;21.00;99.90;;;;;;5024129;28;20473;-87
2021/08/26 10:46:54;;;;;;;0.50;0.40;;;21.00;99.90;;;;;;5021848;28;20455;-87
2021/08/26 10:49:22;;;;;;;0.50;0.40;;;20.90;99.90;;;;;;5021861;28;20501;-85
2021/08/26 10:51:51;;;;;;;0.50;0.30;;;20.90;99.90;;;;;;5020853;28;20506;-86
2021/08/26 10:54:27;;;;;;;0.57;0.47;;;21.10;99.90;;;;;;5019843;28;20448;-85
2021/08/26 10:56:54;;;;;;;0.50;0.30;;;21.90;99.90;;;;;;5019511;28;20491;-86
2021/08/26 10:59:29;;;;;;;0.50;0.30;;;22.50;99.90;;;;;;5022934;28;20440;-82
2021/08/26 11:01:57;;;;;;;0.50;0.30;;;22.60;99.90;;;;;;5021568;28;20453;-82
2021/08/26 11:04:29;;;;;;;0.50;0.30;;;22.70;99.90;;;;;;5018233;28;20976;-82
2021/08/26 11:06:57;;;;;;;0.50;0.30;;;22.60;99.90;;;;;;5019786;28;20435;-82
2021/08/26 11:09:35;;;;;;;0.50;0.30;;;22.50;99.90;;;;;;5022042;28;20443;-83
2021/08/26 11:12:19;;;;;;;0.50;0.30;;;22.30;99.90;;;;;;5025436;28;20473;-83
2021/08/26 11:14:46;;;;;;;0.50;0.30;;;22.20;99.90;;;;;;5023511;28;20466;-83
2021/08/26 11:17:34;;;;;;;0.50;0.30;;;22.20;99.90;;;;;;5024467;28;20489;-83
2021/08/26 11:20:30;;;;;;;0.50;0.30;;;22.20;99.90;;;;;;5026046;28;20419;-83
2021/08/26 11:23:09;;;;;;;0.50;0.30;;;22.30;99.90;;;;;;5025227;28;20447;-81
2021/08/26 11:25:36;;;;;;;0.50;0.40;;;22.50;99.90;;;;;;5025165;28;20425;-85
2021/08/26 11:28:33;;;;;;;0.50;0.30;;;22.90;99.90;;;;;;5023403;28;20427;-84
2021/08/26 11:31:20;;;;;;;0.50;0.30;;;23.70;99.90;;;;;;5016189;28;20463;-82
2021/08/26 11:33:50;;;;;;;3.87;1.17;;;24.90;99.90;;;;;;5022129;28;20551;-81
2021/08/26 11:36:17;;;;;;;0.50;0.30;;;25.00;99.90;;;;;;5021400;28;20457;-84
2021/08/26 11:38:50;;;;;;;0.50;0.30;;;24.80;99.90;;;;;;5021764;28;20482;-81
2021/08/26 11:41:16;;;;;;;0.50;0.30;;;24.70;99.90;;;;;;5021917;28;20420;-83
2021/08/26 11:43:44;;;;;;;0.50;0.30;;;24.60;99.90;;;;;;5022251;28;20463;-81
2021/08/26 11:46:13;;;;;;;1.00;0.90;;;24.40;99.90;;;;;;5020970;28;20444;-84
2021/08/26 11:48:53;;;;;;;0.70;0.70;;;24.20;99.90;;;;;;5021835;28;20462;-83
2021/08/26 11:51:22;;;;;;;0.50;0.30;;;23.80;99.90;;;;;;5016958;28;20453;-82
2021/08/26 11:53:49;;;;;;;1.23;1.13;;;23.30;99.90;;;;;;5022393;28;20462;-85
2021/08/26 11:56:16;;;;;;;0.50;0.30;;;22.90;99.90;;;;;;5022569;28;20439;-82
2021/08/26 11:58:42;;;;;;;0.50;0.40;;;22.70;99.90;;;;;;5022537;28;20479;-86
2021/08/26 12:01:09;;;;;;;0.50;0.30;;;22.60;99.90;;;;;;5022319;28;20442;-82
2021/08/26 12:03:36;;;;;;;0.77;0.60;;;22.60;99.90;;;;;;5022024;28;20471;-84
2021/08/26 12:06:10;;;;;;;0.50;0.30;;;22.60;99.90;;;;;;5022877;28;20801;-83
2021/08/26 12:08:47;;;;;;;0.50;0.30;;;22.50;99.90;;;;;;5023029;28;20423;-83
2021/08/26 12:11:23;;;;;;;0.77;0.63;;;22.70;99.90;;;;;;5022568;28;20447;-83
2021/08/26 12:13:50;;;;;;;0.50;0.30;;;22.90;99.90;;;;;;5022419;28;20470;-82
2021/08/26 12:16:26;;;;;;;0.50;0.30;;;23.20;99.90;;;;;;5026850;28;20443;-85
2021/08/26 12:18:54;;;;;;;0.50;0.30;;;23.70;99.90;;;;;;5026155;28;20481;-84
2021/08/26 12:21:22;;;;;;;0.50;0.40;;;24.10;99.90;;;;;;5007829;28;20447;-84
2021/08/26 12:23:50;;;;;;;0.50;0.30;;;23.90;99.90;;;;;;5024780;28;20482;-84
2021/08/26 12:26:20;;;;;;;0.50;0.30;;;24.10;99.90;;;;;;5024964;28;20503;-85
2021/08/26 12:28:48;;;;;;;0.50;0.30;;;24.50;99.90;;;;;;5024980;28;20435;-85
2021/08/26 12:31:17;;;;;;;0.50;0.30;;;24.70;99.90;;;;;;5023584;28;20482;-84
2021/08/26 12:34:01;;;;;;;0.50;0.30;;;24.70;99.90;;;;;;5022681;28;20455;-84
2021/08/26 12:36:30;;;;;;;0.50;0.30;;;25.00;99.90;;;;;;5021936;28;20435;-85
2021/08/26 12:38:57;;;;;;;0.50;0.30;;;25.70;99.90;;;;;;5022108;28;20491;-86
2021/08/26 12:41:25;;;;;;;0.50;0.30;;;25.80;99.90;;;;;;5024170;28;20787;-83
2021/08/26 12:43:53;;;;;;;3.17;1.60;;;25.30;99.90;;;;;;5023651;28;20468;-85
2021/08/26 12:46:22;;;;;;;0.50;0.30;;;25.00;99.90;;;;;;5023616;28;20443;-84
2021/08/26 12:48:50;;;;;;;0.50;0.30;;;24.50;99.90;;;;;;5022003;28;20443;-83
2021/08/26 12:51:24;;;;;;;0.50;0.50;;;24.10;99.90;;;;;;5021513;28;20452;-86
2021/08/26 12:54:15;;;;;;;0.50;0.30;;;24.00;99.90;;;;;;5020988;28;20818;-84
2021/08/26 12:56:47;;;;;;;0.50;0.30;;;23.80;99.90;;;;;;5022082;28;20420;-86
2021/08/26 12:59:14;;;;;;;0.50;0.40;;;24.00;99.90;;;;;;5022454;28;20537;-85
2021/08/26 13:01:43;;;;;;;0.50;0.30;;;24.10;99.90;;;;;;5024385;28;20457;-85